Time;durP1;ratioP1;P1;durP2;ratioP2;P2;SDS_P1;SDS_P2;PMS_P1;PMS_P2;Temp;Humidity;BMP_temperature;BMP_pressure;BME280_temperature;BME280_humidity;BME280_pressure;Samples;Min_cycle;Max_cycle;Signal;HPM_P1;HPM_P2
2024/03/21 00:01:39;;;;;;;0.00;0.00;;;20.90;49.50;;;;;;5010696;28;20336;-46
2024/03/21 00:04:10;;;;;;;0.00;0.00;;;20.90;49.50;;;;;;5009555;28;20221;-47
2024/03/21 00:06:41;;;;;;;0.00;0.00;;;20.90;49.90;;;;;;5009790;28;20201;-45
2024/03/21 00:09:11;;;;;;;0.00;0.00;;;21.00;50.30;;;;;;5007998;28;20817;-50
2024/03/21 00:11:42;;;;;;;0.00;0.00;;;21.00;50.30;;;;;;5001172;28;20204;-49
2024/03/21 00:14:13;;;;;;;0.00;0.00;;;21.10;50.20;;;;;;5010226;28;20221;-48
2024/03/21 00:16:44;;;;;;;0.00;0.00;;;21.10;50.00;;;;;;5009768;28;20295;-49
2024/03/21 00:19:17;;;;;;;0.00;0.00;;;21.20;49.80;;;;;;5010476;28;20197;-48
2024/03/21 00:21:46;;;;;;;0.00;0.00;;;21.20;49.70;;;;;;5010834;28;20205;-47
2024/03/21 00:24:18;;;;;;;0.00;0.00;;;21.30;49.60;;;;;;5010249;28;20217;-51
2024/03/21 00:26:47;;;;;;;0.00;0.00;;;21.30;49.50;;;;;;5009476;28;20200;-46
2024/03/21 00:29:18;;;;;;;0.00;0.00;;;21.40;49.50;;;;;;5010151;28;20208;-47
2024/03/21 00:31:47;;;;;;;0.00;0.00;;;21.40;49.40;;;;;;5010876;28;20220;-48
2024/03/21 00:34:19;;;;;;;0.00;0.00;;;21.40;49.40;;;;;;5009826;28;20225;-47
2024/03/21 00:36:49;;;;;;;0.00;0.00;;;21.50;49.30;;;;;;5010068;28;20196;-46
2024/03/21 00:39:20;;;;;;;0.00;0.00;;;21.50;49.20;;;;;;5009232;28;20576;-46
2024/03/21 00:41:49;;;;;;;0.00;0.00;;;21.50;49.20;;;;;;5006124;28;20254;-46
2024/03/21 00:44:20;;;;;;;0.00;0.00;;;21.50;49.10;;;;;;5009516;28;20704;-45
2024/03/21 00:46:49;;;;;;;0.00;0.00;;;21.50;49.10;;;;;;5009849;28;20232;-51
2024/03/21 00:49:22;;;;;;;0.00;0.00;;;21.50;49.00;;;;;;5010665;28;20212;-48
2024/03/21 00:51:51;;;;;;;0.00;0.00;;;21.60;49.10;;;;;;5009604;28;20679;-47
2024/03/21 00:54:21;;;;;;;0.00;0.00;;;21.60;49.00;;;;;;5009519;28;20766;-52
2024/03/21 00:56:51;;;;;;;0.00;0.00;;;21.60;49.00;;;;;;4989606;28;20209;-47
2024/03/21 00:59:23;;;;;;;0.00;0.00;;;21.70;49.10;;;;;;5000606;28;20193;-47
2024/03/21 01:01:52;;;;;;;0.03;0.03;;;21.70;48.90;;;;;;5008930;28;20204;-47
2024/03/21 01:04:25;;;;;;;0.10;0.10;;;21.70;48.90;;;;;;5009535;28;20225;-46
2024/03/21 01:06:54;;;;;;;0.00;0.00;;;21.70;48.80;;;;;;4999813;28;20197;-51
2024/03/21 01:09:24;;;;;;;0.03;0.03;;;21.70;48.80;;;;;;5009349;28;20667;-50
2024/03/21 01:11:57;;;;;;;0.00;0.00;;;21.70;48.80;;;;;;5010161;28;20204;-47
2024/03/21 01:14:28;;;;;;;0.00;0.00;;;21.70;48.80;;;;;;5009007;28;20220;-49
2024/03/21 01:16:57;;;;;;;0.00;0.00;;;21.70;48.80;;;;;;5008782;28;20586;-49
2024/03/21 01:19:30;;;;;;;0.00;0.00;;;21.80;48.80;;;;;;5008900;28;20204;-48
2024/03/21 01:21:59;;;;;;;0.00;0.00;;;21.80;48.70;;;;;;5010314;28;20193;-50
2024/03/21 01:24:29;;;;;;;0.00;0.00;;;21.80;48.70;;;;;;5012484;28;20225;-45
2024/03/21 01:26:58;;;;;;;0.00;0.00;;;21.80;48.70;;;;;;5012495;28;20216;-49
2024/03/21 01:29:29;;;;;;;0.00;0.00;;;21.80;48.60;;;;;;5012270;28;20671;-46
2024/03/21 01:31:58;;;;;;;0.00;0.00;;;21.90;48.60;;;;;;5012225;28;20200;-49
2024/03/21 01:34:31;;;;;;;0.00;0.00;;;21.90;48.50;;;;;;5012257;28;20221;-49
2024/03/21 01:37:00;;;;;;;0.00;0.00;;;21.90;48.50;;;;;;5011824;28;20288;-47
2024/03/21 01:39:32;;;;;;;0.00;0.00;;;21.90;48.50;;;;;;5012217;28;20205;-47
2024/03/21 01:42:01;;;;;;;0.00;0.00;;;21.90;48.40;;;;;;5011597;28;20232;-49
2024/03/21 01:44:31;;;;;;;0.00;0.00;;;21.90;48.40;;;;;;5011822;28;20387;-49
2024/03/21 01:47:01;;;;;;;0.00;0.00;;;22.00;48.40;;;;;;5011946;28;20196;-48
2024/03/21 01:49:33;;;;;;;0.00;0.00;;;22.00;48.40;;;;;;5039323;23;20378;-49
2024/03/21 01:52:02;;;;;;;0.00;0.00;;;22.00;48.40;;;;;;5031871;28;20204;-47
2024/03/21 01:54:33;;;;;;;0.00;0.00;;;22.10;48.40;;;;;;5031709;28;20266;-48
2024/03/21 01:57:03;;;;;;;0.00;0.00;;;22.10;48.40;;;;;;5032007;28;20250;-46
2024/03/21 01:59:34;;;;;;;0.00;0.00;;;22.10;48.30;;;;;;5031838;28;20227;-46
2024/03/21 02:02:03;;;;;;;0.00;0.00;;;22.10;48.30;;;;;;5031750;28;20327;-45
2024/03/21 02:04:37;;;;;;;0.00;0.00;;;22.10;48.80;;;;;;5031673;28;20228;-50
2024/03/21 02:07:08;;;;;;;0.00;0.00;;;22.10;49.00;;;;;;5031716;28;20200;-49
2024/03/21 02:09:39;;;;;;;0.00;0.00;;;22.20;48.90;;;;;;5031630;28;20199;-49
2024/03/21 02:12:09;;;;;;;0.00;0.00;;;22.30;48.90;;;;;;5031000;28;20215;-46
2024/03/21 02:14:41;;;;;;;0.10;0.10;;;22.30;48.70;;;;;;5030961;28;20220;-50
2024/03/21 02:17:10;;;;;;;0.00;0.00;;;22.30;48.60;;;;;;5031320;28;20664;-50
2024/03/21 02:19:42;;;;;;;0.05;0.05;;;22.40;48.70;;;;;;5030833;28;20265;-46
2024/03/21 02:25:02;;;;;;;0.00;0.00;;;22.50;48.50;;;;;;5030821;28;20230;-49
2024/03/21 02:27:31;;;;;;;0.00;0.00;;;22.50;48.40;;;;;;5031227;28;20250;-50
2024/03/21 02:30:02;;;;;;;0.03;0.03;;;22.50;48.30;;;;;;5030730;28;20224;-49
2024/03/21 02:32:31;;;;;;;0.05;0.05;;;22.50;48.20;;;;;;5030068;28;20203;-49
2024/03/21 02:35:02;;;;;;;0.00;0.00;;;22.60;48.20;;;;;;5030716;28;20700;-50
2024/03/21 02:37:33;;;;;;;0.00;0.00;;;22.60;48.20;;;;;;5011356;28;20192;-48
2024/03/21 02:40:04;;;;;;;0.00;0.00;;;22.60;48.10;;;;;;5011577;28;20270;-51
2024/03/21 02:42:35;;;;;;;0.00;0.00;;;22.70;48.10;;;;;;5011453;28;20287;-48
2024/03/21 02:45:04;;;;;;;0.00;0.00;;;22.70;48.00;;;;;;5011508;28;20220;-50
2024/03/21 02:47:35;;;;;;;0.00;0.00;;;22.70;48.00;;;;;;5011079;28;20266;-50
2024/03/21 02:50:04;;;;;;;0.00;0.00;;;22.70;48.00;;;;;;5019497;28;20216;-53
2024/03/21 02:52:37;;;;;;;0.00;0.00;;;22.70;48.00;;;;;;5031105;28;20192;-50
2024/03/21 02:55:06;;;;;;;0.00;0.00;;;22.70;48.00;;;;;;5030849;28;20303;-48
2024/03/21 02:57:37;;;;;;;0.00;0.00;;;22.80;48.00;;;;;;5031509;28;20196;-52
2024/03/21 03:00:07;;;;;;;0.00;0.00;;;22.80;48.70;;;;;;5031618;28;20203;-49
2024/03/21 03:02:39;;;;;;;0.00;0.00;;;22.90;48.00;;;;;;5031295;28;20601;-50
2024/03/21 03:05:10;;;;;;;0.00;0.00;;;22.90;48.10;;;;;;5031236;28;20696;-52
2024/03/21 03:07:43;;;;;;;0.00;0.00;;;22.90;48.10;;;;;;5030767;28;20196;-49
2024/03/21 03:10:12;;;;;;;0.00;0.00;;;22.90;48.10;;;;;;5030849;28;20621;-51
2024/03/21 03:12:42;;;;;;;0.00;0.00;;;23.00;48.10;;;;;;5030534;28;20266;-49
2024/03/21 03:15:11;;;;;;;0.00;0.00;;;23.00;48.10;;;;;;5030830;28;20216;-50
2024/03/21 03:17:42;;;;;;;0.00;0.00;;;23.00;48.00;;;;;;5030684;28;20200;-51
2024/03/21 03:20:12;;;;;;;0.05;0.05;;;23.10;48.10;;;;;;5030931;28;20211;-48
2024/03/21 03:22:44;;;;;;;0.00;0.00;;;23.10;47.90;;;;;;5030992;28;20231;-49
2024/03/21 03:25:13;;;;;;;0.10;0.10;;;23.10;47.90;;;;;;5023121;28;20220;-49
2024/03/21 03:27:45;;;;;;;0.10;0.10;;;23.20;47.90;;;;;;5026642;28;20683;-50
2024/03/21 03:30:15;;;;;;;0.00;0.00;;;23.20;47.90;;;;;;5026766;28;20255;-48
2024/03/21 03:32:58;;;;;;;0.00;0.00;;;23.20;47.80;;;;;;5026619;28;20891;-47
2024/03/21 03:35:40;;;;;;;0.00;0.00;;;23.30;47.90;;;;;;5026364;28;20204;-49
2024/03/21 03:38:15;;;;;;;0.00;0.00;;;23.30;47.80;;;;;;5026753;28;20724;-47
2024/03/21 03:40:46;;;;;;;0.10;0.10;;;23.30;47.80;;;;;;5027544;28;20230;-52
2024/03/21 03:43:16;;;;;;;0.00;0.00;;;23.30;47.80;;;;;;5029492;28;20679;-52
2024/03/21 03:45:47;;;;;;;0.00;0.00;;;23.40;47.80;;;;;;5031276;28;20196;-51
2024/03/21 03:48:18;;;;;;;0.00;0.00;;;23.40;47.80;;;;;;5041180;23;20228;-52
2024/03/21 03:50:48;;;;;;;0.00;0.00;;;23.40;47.70;;;;;;5031222;28;20753;-49
2024/03/21 03:53:19;;;;;;;0.00;0.00;;;23.40;47.70;;;;;;5030527;28;20204;-49
2024/03/21 03:55:50;;;;;;;0.00;0.00;;;23.50;47.70;;;;;;5029884;28;20196;-49
2024/03/21 03:58:19;;;;;;;0.00;0.00;;;23.50;47.60;;;;;;5030131;28;20637;-49
2024/03/21 04:00:58;;;;;;;0.00;0.00;;;23.60;47.60;;;;;;5029981;28;20200;-48
2024/03/21 04:03:29;;;;;;;0.00;0.00;;;23.60;47.50;;;;;;5030061;28;20282;-51
2024/03/21 04:06:01;;;;;;;0.00;0.00;;;23.60;47.40;;;;;;5029548;28;20192;-48
2024/03/21 04:08:32;;;;;;;0.00;0.00;;;23.70;47.50;;;;;;5028683;28;20200;-48
2024/03/21 04:11:02;;;;;;;0.00;0.00;;;23.70;47.40;;;;;;5030485;28;20236;-46
2024/03/21 04:13:31;;;;;;;0.10;0.10;;;23.80;47.40;;;;;;5029628;28;20223;-50
2024/03/21 04:16:02;;;;;;;0.10;0.10;;;23.80;47.40;;;;;;5030796;28;20200;-49
2024/03/21 04:18:32;;;;;;;0.00;0.00;;;23.80;47.30;;;;;;5029991;28;20196;-47
2024/03/21 04:21:02;;;;;;;0.00;0.00;;;23.80;47.20;;;;;;5030087;28;20199;-47
2024/03/21 04:23:33;;;;;;;0.00;0.00;;;23.80;47.10;;;;;;5030275;28;20227;-47
2024/03/21 04:26:04;;;;;;;0.00;0.00;;;23.90;47.10;;;;;;5029507;28;20211;-47
2024/03/21 04:28:33;;;;;;;0.00;0.00;;;23.90;47.10;;;;;;5029584;28;20204;-50
2024/03/21 04:31:04;;;;;;;0.00;0.00;;;23.90;47.10;;;;;;5030225;28;20728;-51
2024/03/21 04:33:33;;;;;;;0.00;0.00;;;24.00;47.10;;;;;;5029870;28;20303;-48
2024/03/21 04:36:03;;;;;;;0.00;0.00;;;24.00;47.00;;;;;;5029708;28;20211;-48
2024/03/21 04:38:36;;;;;;;0.00;0.00;;;24.10;47.00;;;;;;5030024;28;20204;-47
2024/03/21 04:41:07;;;;;;;0.00;0.00;;;24.10;47.00;;;;;;5026939;28;20196;-48
2024/03/21 04:43:41;;;;;;;0.00;0.00;;;24.20;47.10;;;;;;5029404;28;20299;-50
2024/03/21 04:46:10;;;;;;;0.00;0.00;;;24.20;47.00;;;;;;5029892;28;20599;-49
2024/03/21 04:48:40;;;;;;;0.10;0.10;;;24.20;46.90;;;;;;5029817;28;20235;-48
2024/03/21 04:51:11;;;;;;;0.00;0.00;;;24.20;46.90;;;;;;5029614;28;20223;-48
2024/03/21 04:53:42;;;;;;;0.00;0.00;;;24.30;46.90;;;;;;5028105;28;20282;-50
2024/03/21 04:56:13;;;;;;;0.00;0.00;;;24.30;46.80;;;;;;5029888;28;20328;-52
2024/03/21 04:58:42;;;;;;;0.00;0.00;;;24.30;46.70;;;;;;5029468;28;20192;-54
2024/03/21 05:01:12;;;;;;;0.00;0.00;;;24.30;46.70;;;;;;5029503;28;20206;-50
2024/03/21 05:03:41;;;;;;;0.00;0.00;;;24.30;46.60;;;;;;5028890;28;20486;-48
2024/03/21 05:06:12;;;;;;;0.00;0.00;;;24.40;46.60;;;;;;5028752;28;20201;-47
2024/03/21 05:08:43;;;;;;;0.00;0.00;;;24.40;46.60;;;;;;5028514;28;20204;-48
2024/03/21 05:11:14;;;;;;;0.00;0.00;;;24.40;46.60;;;;;;5028762;28;20230;-47
2024/03/21 05:13:46;;;;;;;0.00;0.00;;;24.50;46.60;;;;;;5028816;28;20212;-49
2024/03/21 05:16:17;;;;;;;0.00;0.00;;;24.50;46.60;;;;;;5028814;28;20196;-49
2024/03/21 05:18:46;;;;;;;0.00;0.00;;;24.50;46.60;;;;;;5028861;28;20184;-51
2024/03/21 05:21:17;;;;;;;0.10;0.10;;;24.50;46.50;;;;;;5028618;28;20208;-50
2024/03/21 05:23:48;;;;;;;0.00;0.00;;;24.50;46.50;;;;;;5028903;28;20224;-47
2024/03/21 05:26:19;;;;;;;0.00;0.00;;;24.60;46.50;;;;;;5028589;28;20570;-48
2024/03/21 05:28:48;;;;;;;0.00;0.00;;;24.60;46.40;;;;;;5027807;28;20200;-50
2024/03/21 05:31:24;;;;;;;0.00;0.00;;;24.60;46.40;;;;;;5028910;28;20228;-53
2024/03/21 05:33:54;;;;;;;0.00;0.00;;;24.60;46.40;;;;;;5028194;28;20261;-49
2024/03/21 05:36:24;;;;;;;0.00;0.00;;;24.60;46.40;;;;;;5029203;28;20203;-47
2024/03/21 05:38:56;;;;;;;0.00;0.00;;;24.60;46.40;;;;;;5028368;28;20211;-48
2024/03/21 05:41:27;;;;;;;0.00;0.00;;;24.70;46.40;;;;;;5028948;28;20204;-50
2024/03/21 05:43:57;;;;;;;0.00;0.00;;;24.70;46.40;;;;;;5028250;28;20228;-48
2024/03/21 05:46:28;;;;;;;0.00;0.00;;;24.70;46.40;;;;;;5029255;28;20214;-47
2024/03/21 05:48:57;;;;;;;0.00;0.00;;;24.70;46.40;;;;;;5028071;28;20248;-51
2024/03/21 05:51:28;;;;;;;0.00;0.00;;;24.70;46.40;;;;;;5028422;28;20228;-52
2024/03/21 05:54:01;;;;;;;0.05;0.05;;;24.70;46.40;;;;;;5028618;28;20227;-48
2024/03/21 05:56:32;;;;;;;0.00;0.00;;;24.70;46.40;;;;;;5008250;28;20291;-50
2024/03/21 05:59:01;;;;;;;0.00;0.00;;;24.70;46.40;;;;;;5008072;28;20197;-52
2024/03/21 06:01:34;;;;;;;0.00;0.00;;;24.70;46.40;;;;;;5017487;28;20204;-50
2024/03/21 06:04:04;;;;;;;0.00;0.00;;;24.70;46.40;;;;;;5028304;28;20992;-47
2024/03/21 06:06:35;;;;;;;0.00;0.00;;;24.70;46.40;;;;;;5027060;28;20208;-50
2024/03/21 06:09:08;;;;;;;0.00;0.00;;;24.70;46.40;;;;;;5027159;28;20607;-52
2024/03/21 06:11:39;;;;;;;0.00;0.00;;;24.70;46.40;;;;;;5027379;28;20691;-49
2024/03/21 06:14:08;;;;;;;0.00;0.00;;;24.70;46.40;;;;;;5026814;28;20213;-50
2024/03/21 06:16:38;;;;;;;0.00;0.00;;;24.70;46.40;;;;;;5028704;28;20689;-50
2024/03/21 06:19:07;;;;;;;0.00;0.00;;;24.70;46.40;;;;;;5030568;28;20257;-55
2024/03/21 06:21:38;;;;;;;0.00;0.00;;;24.70;46.40;;;;;;5031392;28;20196;-55
2024/03/21 06:24:09;;;;;;;0.10;0.10;;;24.70;46.40;;;;;;5030338;28;20220;-49
2024/03/21 06:26:40;;;;;;;0.00;0.00;;;24.70;46.40;;;;;;5030352;28;20231;-51
2024/03/21 06:29:09;;;;;;;0.00;0.00;;;24.70;46.40;;;;;;5030846;28;20200;-53
2024/03/21 06:31:40;;;;;;;0.00;0.00;;;24.70;46.40;;;;;;5030931;28;20268;-51
2024/03/21 06:34:09;;;;;;;0.00;0.00;;;24.70;46.30;;;;;;5030693;28;20228;-48
2024/03/21 06:36:39;;;;;;;0.00;0.00;;;24.70;46.30;;;;;;5031176;28;20231;-49
2024/03/21 06:39:11;;;;;;;0.00;0.00;;;24.70;46.30;;;;;;5030420;28;20203;-48
2024/03/21 06:41:42;;;;;;;0.00;0.00;;;24.70;46.30;;;;;;5030799;28;20192;-48
2024/03/21 06:44:11;;;;;;;0.00;0.00;;;24.60;46.10;;;;;;5031036;28;20216;-49
2024/03/21 06:46:41;;;;;;;0.00;0.00;;;24.60;46.10;;;;;;5030338;28;20203;-50
2024/03/21 06:49:10;;;;;;;0.00;0.00;;;24.60;46.10;;;;;;5030127;28;20212;-48
2024/03/21 06:51:41;;;;;;;0.00;0.00;;;24.60;46.10;;;;;;5030724;28;20220;-47
2024/03/21 06:54:12;;;;;;;0.00;0.00;;;24.60;46.10;;;;;;5030713;28;20562;-45
2024/03/21 06:56:43;;;;;;;0.10;0.10;;;24.50;46.10;;;;;;5031066;28;20656;-48
2024/03/21 06:59:12;;;;;;;0.00;0.00;;;24.50;46.10;;;;;;5031339;28;20200;-49
2024/03/21 07:01:43;;;;;;;0.00;0.00;;;24.50;46.10;;;;;;5031282;28;20196;-48
2024/03/21 07:04:12;;;;;;;0.00;0.00;;;24.50;46.20;;;;;;5031217;28;20270;-49
2024/03/21 07:06:42;;;;;;;0.00;0.00;;;24.50;46.20;;;;;;5030609;28;20561;-50
2024/03/21 07:09:14;;;;;;;0.00;0.00;;;24.50;46.20;;;;;;5011710;28;20641;-48
2024/03/21 07:11:44;;;;;;;0.10;0.10;;;24.50;46.20;;;;;;5011194;28;20282;-48
2024/03/21 07:14:13;;;;;;;0.00;0.00;;;24.40;46.10;;;;;;5011546;28;20217;-48
2024/03/21 07:16:44;;;;;;;0.00;0.00;;;24.50;46.20;;;;;;5011103;28;20193;-48
2024/03/21 07:19:13;;;;;;;0.00;0.00;;;24.40;46.10;;;;;;5025140;28;20768;-48
2024/03/21 07:21:45;;;;;;;0.00;0.00;;;24.40;46.10;;;;;;5032626;28;20568;-51
2024/03/21 07:24:16;;;;;;;0.10;0.10;;;24.40;46.10;;;;;;5034647;28;20255;-49
2024/03/21 07:26:46;;;;;;;0.00;0.00;;;24.40;46.10;;;;;;5034278;28;20200;-46
2024/03/21 07:29:15;;;;;;;0.00;0.00;;;24.40;46.10;;;;;;5034267;28;20671;-48
2024/03/21 07:31:46;;;;;;;0.00;0.00;;;24.30;46.00;;;;;;5034722;28;20224;-48
2024/03/21 07:34:15;;;;;;;0.00;0.00;;;24.30;46.00;;;;;;5034243;28;20216;-53
2024/03/21 07:36:46;;;;;;;0.00;0.00;;;24.30;46.00;;;;;;5033146;28;20200;-49
2024/03/21 07:39:19;;;;;;;0.00;0.00;;;24.30;46.00;;;;;;5033687;28;20385;-48
2024/03/21 07:41:49;;;;;;;0.00;0.00;;;24.30;45.90;;;;;;5033923;28;20200;-46
2024/03/21 07:44:20;;;;;;;0.00;0.00;;;24.30;46.00;;;;;;5034119;28;20448;-49
2024/03/21 07:46:50;;;;;;;0.00;0.00;;;24.20;46.00;;;;;;5034062;28;20266;-49
2024/03/21 07:49:19;;;;;;;0.00;0.00;;;24.20;46.00;;;;;;5034160;28;20569;-47
2024/03/21 07:51:51;;;;;;;0.00;0.00;;;24.20;46.00;;;;;;5033009;28;20263;-48
2024/03/21 07:54:22;;;;;;;0.00;0.00;;;24.20;46.00;;;;;;5034028;28;20220;-48
2024/03/21 07:56:52;;;;;;;0.00;0.00;;;24.10;45.90;;;;;;5034360;28;20216;-48
2024/03/21 07:59:22;;;;;;;0.00;0.00;;;24.10;46.00;;;;;;5034116;28;20931;-47
2024/03/21 08:01:53;;;;;;;0.00;0.00;;;24.10;46.00;;;;;;5033998;28;20228;-52
2024/03/21 08:04:23;;;;;;;0.00;0.00;;;24.10;46.10;;;;;;5014438;28;20554;-48
2024/03/21 08:06:53;;;;;;;0.00;0.00;;;24.10;46.00;;;;;;5013593;28;20212;-48
2024/03/21 08:09:24;;;;;;;0.00;0.00;;;24.00;46.30;;;;;;5013748;28;20204;-50
2024/03/21 08:11:56;;;;;;;0.10;0.10;;;24.00;46.30;;;;;;5025770;28;20227;-50
2024/03/21 08:14:25;;;;;;;0.00;0.00;;;24.00;46.30;;;;;;5034367;28;20311;-47
2024/03/21 08:16:56;;;;;;;0.00;0.00;;;24.00;46.50;;;;;;5033320;28;20228;-47
2024/03/21 08:19:25;;;;;;;0.10;0.10;;;24.00;46.60;;;;;;5032927;28;20737;-46
2024/03/21 08:21:56;;;;;;;0.00;0.00;;;24.00;46.60;;;;;;5032816;28;20200;-47
2024/03/21 08:24:28;;;;;;;0.00;0.00;;;24.00;46.60;;;;;;5033201;28;20228;-48
2024/03/21 08:27:02;;;;;;;0.00;0.00;;;24.00;46.60;;;;;;5033510;28;20235;-47
2024/03/21 08:29:31;;;;;;;0.00;0.00;;;23.90;46.50;;;;;;5032518;28;20192;-46
2024/03/21 08:32:02;;;;;;;0.00;0.00;;;23.90;46.50;;;;;;5033042;28;20224;-48
2024/03/21 08:34:31;;;;;;;0.10;0.10;;;23.80;46.50;;;;;;5032853;28;20230;-45
2024/03/21 08:37:02;;;;;;;0.00;0.00;;;23.90;46.60;;;;;;5032304;28;20207;-46
2024/03/21 08:39:33;;;;;;;0.00;0.00;;;23.80;46.60;;;;;;5033280;28;20203;-47
2024/03/21 08:42:04;;;;;;;0.00;0.00;;;23.80;46.60;;;;;;5033529;28;20203;-46
2024/03/21 08:44:33;;;;;;;0.00;0.00;;;23.80;46.60;;;;;;5033234;28;20220;-47
2024/03/21 08:47:03;;;;;;;0.10;0.10;;;23.70;46.60;;;;;;5032059;28;20243;-47
2024/03/21 08:49:32;;;;;;;0.10;0.10;;;23.80;46.60;;;;;;5032358;28;20200;-47
2024/03/21 08:52:03;;;;;;;0.00;0.00;;;23.70;46.60;;;;;;5031956;28;20224;-45
2024/03/21 08:54:34;;;;;;;0.00;0.00;;;23.70;46.70;;;;;;5028618;28;20570;-49
2024/03/21 08:57:05;;;;;;;0.00;0.00;;;23.70;46.80;;;;;;5028531;28;20460;-47
2024/03/21 08:59:34;;;;;;;0.00;0.00;;;23.70;46.90;;;;;;5029498;28;20329;-49
2024/03/21 09:02:06;;;;;;;0.00;0.00;;;23.70;46.90;;;;;;5029525;28;20197;-48
2024/03/21 09:04:35;;;;;;;0.00;0.00;;;23.70;46.90;;;;;;5027896;28;20235;-48
2024/03/21 09:07:06;;;;;;;0.00;0.00;;;23.70;47.00;;;;;;5029529;28;20310;-47
2024/03/21 09:09:38;;;;;;;0.00;0.00;;;23.70;47.00;;;;;;5029160;28;20200;-49
2024/03/21 09:12:08;;;;;;;0.10;0.10;;;23.60;46.90;;;;;;5029349;28;20278;-53
2024/03/21 09:14:38;;;;;;;0.10;0.10;;;23.60;46.90;;;;;;5028597;28;20258;-48
2024/03/21 09:17:08;;;;;;;0.00;0.00;;;23.60;46.90;;;;;;5028474;28;20206;-47
2024/03/21 09:19:37;;;;;;;0.00;0.00;;;23.60;46.90;;;;;;5028684;28;20219;-45
2024/03/21 09:22:08;;;;;;;0.00;0.00;;;23.50;46.90;;;;;;5028139;28;20210;-48
2024/03/21 09:24:42;;;;;;;0.00;0.00;;;23.50;46.90;;;;;;5028343;28;20597;-49
2024/03/21 09:27:12;;;;;;;0.03;0.03;;;23.50;46.90;;;;;;5027901;28;20200;-46
2024/03/21 09:29:42;;;;;;;0.10;0.10;;;23.50;47.00;;;;;;5028202;28;20204;-46
2024/03/21 09:32:12;;;;;;;0.00;0.00;;;23.40;46.90;;;;;;5028575;28;20236;-47
2024/03/21 09:34:42;;;;;;;0.00;0.00;;;23.40;46.90;;;;;;5028379;28;20220;-46
2024/03/21 09:37:13;;;;;;;0.10;0.10;;;23.40;47.00;;;;;;5027220;28;20735;-48
2024/03/21 09:39:44;;;;;;;0.03;0.03;;;23.40;47.00;;;;;;5028012;28;20203;-49
2024/03/21 09:42:18;;;;;;;0.00;0.00;;;23.30;47.00;;;;;;5028546;28;20660;-48
2024/03/21 09:44:49;;;;;;;0.00;0.00;;;23.30;47.00;;;;;;5028278;28;20585;-47
2024/03/21 09:47:23;;;;;;;0.00;0.00;;;23.30;47.00;;;;;;5028217;28;20602;-46
2024/03/21 09:49:52;;;;;;;0.10;0.10;;;23.30;47.00;;;;;;5028524;28;20286;-44
2024/03/21 09:52:23;;;;;;;0.00;0.00;;;23.30;47.00;;;;;;5028685;28;20232;-48
2024/03/21 09:54:54;;;;;;;0.00;0.00;;;23.20;47.00;;;;;;5028323;28;20700;-48
2024/03/21 09:57:25;;;;;;;0.00;0.00;;;23.20;47.00;;;;;;5028556;28;20290;-49
2024/03/21 09:59:54;;;;;;;0.00;0.00;;;23.20;47.00;;;;;;5027972;28;20207;-47
2024/03/21 10:02:25;;;;;;;0.00;0.00;;;23.10;47.00;;;;;;5027491;28;20200;-47
2024/03/21 10:04:55;;;;;;;0.00;0.00;;;23.10;47.00;;;;;;5027439;28;20576;-51
2024/03/21 10:07:26;;;;;;;0.00;0.00;;;23.10;47.00;;;;;;5028500;28;20227;-51
2024/03/21 10:09:58;;;;;;;0.00;0.00;;;23.00;47.00;;;;;;5028283;28;20271;-51
2024/03/21 10:12:29;;;;;;;0.00;0.00;;;23.00;47.00;;;;;;5028258;28;20318;-49
2024/03/21 10:14:58;;;;;;;0.00;0.00;;;23.00;47.00;;;;;;5028294;28;20219;-49
2024/03/21 10:17:29;;;;;;;0.00;0.00;;;23.00;47.00;;;;;;5027992;28;20212;-45
2024/03/21 10:19:59;;;;;;;0.00;0.00;;;23.00;47.10;;;;;;5028300;28;20204;-48
2024/03/21 10:22:30;;;;;;;0.00;0.00;;;22.90;47.00;;;;;;5026963;28;20204;-46
2024/03/21 10:25:03;;;;;;;0.00;0.00;;;22.90;47.00;;;;;;5027576;28;20270;-46
2024/03/21 10:27:33;;;;;;;0.00;0.00;;;22.80;47.00;;;;;;5028414;28;20200;-48
2024/03/21 10:30:03;;;;;;;0.00;0.00;;;22.80;47.10;;;;;;5028217;28;20211;-48
2024/03/21 10:32:34;;;;;;;0.00;0.00;;;22.80;47.10;;;;;;5028339;28;20267;-49
2024/03/21 10:35:06;;;;;;;0.00;0.00;;;22.80;47.10;;;;;;5026805;28;20422;-48
2024/03/21 10:37:37;;;;;;;0.00;0.00;;;22.80;47.10;;;;;;5027593;28;20208;-48
2024/03/21 10:40:13;;;;;;;0.00;0.00;;;22.70;47.10;;;;;;5027152;28;20196;-49
2024/03/21 10:42:48;;;;;;;0.00;0.00;;;22.70;47.00;;;;;;5028111;28;20584;-47
2024/03/21 10:45:18;;;;;;;0.00;0.00;;;22.70;47.00;;;;;;5027051;28;20280;-48
2024/03/21 10:47:55;;;;;;;0.00;0.00;;;22.70;47.10;;;;;;5028325;28;20825;-47
2024/03/21 10:50:25;;;;;;;0.00;0.00;;;22.70;47.10;;;;;;5027767;28;20204;-48
2024/03/21 10:52:56;;;;;;;0.00;0.00;;;22.70;47.10;;;;;;5029279;28;20620;-47
2024/03/21 10:55:28;;;;;;;0.00;0.00;;;22.60;47.10;;;;;;5032268;28;20223;-47
2024/03/21 10:58:00;;;;;;;0.00;0.00;;;22.60;47.10;;;;;;5031995;28;20660;-48
2024/03/21 11:00:29;;;;;;;0.00;0.00;;;22.60;47.10;;;;;;5029792;28;20273;-47
2024/03/21 11:03:01;;;;;;;0.00;0.00;;;22.50;47.10;;;;;;5030790;28;20285;-46
2024/03/21 11:05:30;;;;;;;0.10;0.10;;;22.50;47.30;;;;;;5030696;28;20671;-45
2024/03/21 11:08:01;;;;;;;0.10;0.10;;;22.50;47.20;;;;;;5031498;28;20203;-44
2024/03/21 11:10:34;;;;;;;0.10;0.10;;;22.50;47.10;;;;;;5031551;28;20219;-45
2024/03/21 11:13:05;;;;;;;0.00;0.00;;;22.50;47.10;;;;;;5031184;28;20228;-47
2024/03/21 11:15:34;;;;;;;0.10;0.10;;;22.40;47.20;;;;;;5031791;28;20204;-48
2024/03/21 11:18:08;;;;;;;0.00;0.00;;;22.40;47.20;;;;;;5030775;28;20200;-46
2024/03/21 11:20:37;;;;;;;0.00;0.00;;;22.40;47.20;;;;;;5031118;28;20563;-50
2024/03/21 11:23:07;;;;;;;0.00;0.00;;;22.40;47.20;;;;;;5030799;28;20393;-46
2024/03/21 11:25:39;;;;;;;0.00;0.00;;;22.40;47.20;;;;;;5031154;28;20782;-50
2024/03/21 11:28:13;;;;;;;0.00;0.00;;;22.30;47.10;;;;;;5031461;28;20227;-46
2024/03/21 11:30:45;;;;;;;0.05;0.05;;;22.30;47.10;;;;;;5031153;28;20243;-47
2024/03/21 11:33:16;;;;;;;0.00;0.00;;;22.30;47.20;;;;;;5030444;28;20232;-45
2024/03/21 11:35:45;;;;;;;0.00;0.00;;;22.30;47.20;;;;;;5031338;28;20207;-46
2024/03/21 11:38:16;;;;;;;0.00;0.00;;;22.30;47.20;;;;;;5030686;28;20250;-49
2024/03/21 11:40:47;;;;;;;0.00;0.00;;;22.20;47.20;;;;;;5030328;28;20250;-48
2024/03/21 11:43:18;;;;;;;0.03;0.03;;;22.20;47.20;;;;;;5029789;28;20253;-49
2024/03/21 11:45:48;;;;;;;0.00;0.00;;;22.20;47.20;;;;;;5025398;28;20199;-46
2024/03/21 11:48:24;;;;;;;0.00;0.00;;;22.20;47.20;;;;;;5034169;28;20870;-47
2024/03/21 11:50:53;;;;;;;0.00;0.00;;;22.20;47.20;;;;;;5034515;28;20195;-46
2024/03/21 11:53:24;;;;;;;0.00;0.00;;;22.10;47.10;;;;;;5034295;28;20297;-46
2024/03/21 11:55:55;;;;;;;0.00;0.00;;;22.10;47.10;;;;;;5034404;28;20204;-45
2024/03/21 11:58:26;;;;;;;0.00;0.00;;;22.10;47.10;;;;;;5034398;28;20206;-48
2024/03/21 12:00:55;;;;;;;0.00;0.00;;;22.10;47.10;;;;;;5034215;28;20200;-47
2024/03/21 12:03:26;;;;;;;0.10;0.10;;;22.10;47.20;;;;;;5034200;28;20211;-48
2024/03/21 12:05:55;;;;;;;0.08;0.08;;;22.00;47.10;;;;;;5031732;28;20204;-46
2024/03/21 12:08:26;;;;;;;0.00;0.00;;;22.00;47.10;;;;;;5034278;28;20200;-45
2024/03/21 12:10:57;;;;;;;0.10;0.10;;;22.00;47.20;;;;;;5034231;28;20675;-46
2024/03/21 12:13:27;;;;;;;0.00;0.00;;;21.90;47.10;;;;;;5032949;28;20232;-45
2024/03/21 12:15:56;;;;;;;0.00;0.00;;;21.90;47.20;;;;;;5031401;28;20253;-45
2024/03/21 12:18:30;;;;;;;0.00;0.00;;;21.90;47.20;;;;;;5031993;28;20207;-48
2024/03/21 12:21:00;;;;;;;0.00;0.00;;;21.90;47.20;;;;;;5033648;28;20203;-44
2024/03/21 12:23:30;;;;;;;0.00;0.00;;;21.90;47.20;;;;;;5033719;28;20262;-44
2024/03/21 12:26:01;;;;;;;0.00;0.00;;;21.80;47.20;;;;;;5033436;28;20270;-45
2024/03/21 12:28:32;;;;;;;0.10;0.10;;;21.80;47.20;;;;;;5033564;28;20282;-44
2024/03/21 12:31:01;;;;;;;0.00;0.00;;;21.80;47.20;;;;;;5033264;28;20617;-46
2024/03/21 12:33:32;;;;;;;0.00;0.00;;;21.80;47.20;;;;;;5033090;28;20255;-44
2024/03/21 12:36:01;;;;;;;0.10;0.10;;;21.70;47.20;;;;;;5033514;28;20215;-45
2024/03/21 12:38:33;;;;;;;0.00;0.00;;;21.70;47.20;;;;;;5032040;28;20192;-43
2024/03/21 12:41:05;;;;;;;0.08;0.08;;;21.70;47.20;;;;;;5032949;28;20224;-46
2024/03/21 12:43:36;;;;;;;0.00;0.00;;;21.70;47.20;;;;;;5031215;28;20208;-44
2024/03/21 12:46:06;;;;;;;0.10;0.10;;;21.70;47.20;;;;;;5032720;28;20561;-46
2024/03/21 12:48:36;;;;;;;0.10;0.10;;;21.60;47.10;;;;;;5030847;28;20218;-44
2024/03/21 12:51:06;;;;;;;0.08;0.08;;;21.60;47.10;;;;;;5032674;28;20270;-45
2024/03/21 12:53:37;;;;;;;0.00;0.00;;;21.60;47.10;;;;;;5032713;28;20220;-45
2024/03/21 12:56:08;;;;;;;0.10;0.10;;;21.60;47.20;;;;;;5032429;28;20214;-44
2024/03/21 12:58:39;;;;;;;0.00;0.00;;;21.50;47.20;;;;;;5030646;28;20184;-44
2024/03/21 13:01:09;;;;;;;0.10;0.10;;;21.50;47.20;;;;;;5033046;28;20191;-46
2024/03/21 13:03:40;;;;;;;0.10;0.10;;;21.50;47.20;;;;;;5030549;28;20219;-45
2024/03/21 13:06:09;;;;;;;0.00;0.00;;;21.50;47.30;;;;;;5032634;28;20246;-46
2024/03/21 13:08:41;;;;;;;0.00;0.00;;;21.40;47.20;;;;;;5032492;28;20204;-48